sensor_id;sensor_type;location;lat;lon;timestamp;P1;durP1;ratioP1;P2;durP2;ratioP2
10523;SDS011;5310;48.638;9.060;2022-08-21T04:03:42;0.60;;;0.60;;
10523;SDS011;5310;48.638;9.060;2022-08-21T04:06:08;0.60;;;0.60;;
10523;SDS011;5310;48.638;9.060;2022-08-21T04:08:34;0.60;;;0.60;;
10523;SDS011;5310;48.638;9.060;2022-08-21T04:11:00;0.60;;;0.60;;
10523;SDS011;5310;48.638;9.060;2022-08-21T04:13:26;0.60;;;0.60;;
10523;SDS011;5310;48.638;9.060;2022-08-21T04:15:53;0.60;;;0.60;;
10523;SDS011;5310;48.638;9.060;2022-08-21T04:18:18;0.70;;;0.70;;
10523;SDS011;5310;48.638;9.060;2022-08-21T04:20:45;0.60;;;0.60;;
10523;SDS011;5310;48.638;9.060;2022-08-21T04:23:12;0.60;;;0.60;;
10523;SDS011;5310;48.638;9.060;2022-08-21T04:25:38;0.70;;;0.70;;
10523;SDS011;5310;48.638;9.060;2022-08-21T04:28:04;0.80;;;0.80;;
10523;SDS011;5310;48.638;9.060;2022-08-21T04:30:30;0.60;;;0.60;;
10523;SDS011;5310;48.638;9.060;2022-08-21T04:32:56;0.60;;;0.60;;
10523;SDS011;5310;48.638;9.060;2022-08-21T04:35:23;0.60;;;0.60;;
10523;SDS011;5310;48.638;9.060;2022-08-21T04:37:49;0.60;;;0.60;;
10523;SDS011;5310;48.638;9.060;2022-08-21T04:40:16;0.60;;;0.60;;
10523;SDS011;5310;48.638;9.060;2022-08-21T04:42:44;0.70;;;0.70;;
10523;SDS011;5310;48.638;9.060;2022-08-21T04:47:44;0.60;;;0.60;;
10523;SDS011;5310;48.638;9.060;2022-08-21T04:50:10;0.70;;;0.70;;
10523;SDS011;5310;48.638;9.060;2022-08-21T04:52:36;0.60;;;0.60;;
10523;SDS011;5310;48.638;9.060;2022-08-21T04:55:02;0.60;;;0.60;;
10523;SDS011;5310;48.638;9.060;2022-08-21T04:57:28;0.70;;;0.70;;
10523;SDS011;5310;48.638;9.060;2022-08-21T04:59:54;0.60;;;0.60;;
10523;SDS011;5310;48.638;9.060;2022-08-21T05:02:20;0.60;;;0.60;;
10523;SDS011;5310;48.638;9.060;2022-08-21T05:04:48;0.70;;;0.70;;
10523;SDS011;5310;48.638;9.060;2022-08-21T05:07:17;0.60;;;0.60;;
10523;SDS011;5310;48.638;9.060;2022-08-21T05:09:45;0.60;;;0.60;;
10523;SDS011;5310;48.638;9.060;2022-08-21T05:12:11;0.60;;;0.60;;
10523;SDS011;5310;48.638;9.060;2022-08-21T05:14:37;0.50;;;0.50;;
10523;SDS011;5310;48.638;9.060;2022-08-21T05:17:03;0.50;;;0.50;;
10523;SDS011;5310;48.638;9.060;2022-08-21T05:19:30;0.43;;;0.43;;
10523;SDS011;5310;48.638;9.060;2022-08-21T05:21:56;0.30;;;0.30;;
10523;SDS011;5310;48.638;9.060;2022-08-21T05:24:23;0.40;;;0.40;;
10523;SDS011;5310;48.638;9.060;2022-08-21T05:26:49;0.50;;;0.50;;
10523;SDS011;5310;48.638;9.060;2022-08-21T05:29:15;0.40;;;0.40;;
10523;SDS011;5310;48.638;9.060;2022-08-21T05:31:41;0.40;;;0.40;;
10523;SDS011;5310;48.638;9.060;2022-08-21T05:34:07;0.47;;;0.47;;
10523;SDS011;5310;48.638;9.060;2022-08-21T05:36:33;0.35;;;0.35;;
10523;SDS011;5310;48.638;9.060;2022-08-21T05:38:59;0.40;;;0.40;;
10523;SDS011;5310;48.638;9.060;2022-08-21T05:41:25;0.43;;;0.43;;
10523;SDS011;5310;48.638;9.060;2022-08-21T05:43:51;0.40;;;0.40;;
10523;SDS011;5310;48.638;9.060;2022-08-21T05:46:17;0.40;;;0.40;;
10523;SDS011;5310;48.638;9.060;2022-08-21T05:48:43;0.40;;;0.40;;
10523;SDS011;5310;48.638;9.060;2022-08-21T05:51:10;0.40;;;0.40;;
10523;SDS011;5310;48.638;9.060;2022-08-21T05:53:36;0.40;;;0.40;;
10523;SDS011;5310;48.638;9.060;2022-08-21T05:56:03;0.40;;;0.40;;
10523;SDS011;5310;48.638;9.060;2022-08-21T05:58:30;0.30;;;0.30;;
10523;SDS011;5310;48.638;9.060;2022-08-21T06:00:57;0.20;;;0.20;;
10523;SDS011;5310;48.638;9.060;2022-08-21T06:03:25;0.30;;;0.30;;
10523;SDS011;5310;48.638;9.060;2022-08-21T06:05:51;0.30;;;0.30;;
10523;SDS011;5310;48.638;9.060;2022-08-21T06:08:18;0.30;;;0.30;;
10523;SDS011;5310;48.638;9.060;2022-08-21T06:10:45;0.30;;;0.30;;
10523;SDS011;5310;48.638;9.060;2022-08-21T06:13:12;0.30;;;0.30;;
10523;SDS011;5310;48.638;9.060;2022-08-21T06:15:38;0.40;;;0.40;;
10523;SDS011;5310;48.638;9.060;2022-08-21T06:18:04;0.40;;;0.40;;
10523;SDS011;5310;48.638;9.060;2022-08-21T06:20:30;0.35;;;0.35;;
10523;SDS011;5310;48.638;9.060;2022-08-21T06:22:57;0.30;;;0.30;;
10523;SDS011;5310;48.638;9.060;2022-08-21T06:25:23;0.30;;;0.30;;
10523;SDS011;5310;48.638;9.060;2022-08-21T06:27:49;0.30;;;0.30;;
10523;SDS011;5310;48.638;9.060;2022-08-21T06:30:15;0.30;;;0.30;;
10523;SDS011;5310;48.638;9.060;2022-08-21T06:32:41;0.30;;;0.30;;
10523;SDS011;5310;48.638;9.060;2022-08-21T06:35:07;0.30;;;0.30;;
10523;SDS011;5310;48.638;9.060;2022-08-21T06:37:33;0.30;;;0.30;;
10523;SDS011;5310;48.638;9.060;2022-08-21T06:39:59;0.40;;;0.40;;
10523;SDS011;5310;48.638;9.060;2022-08-21T06:42:25;0.30;;;0.30;;
10523;SDS011;5310;48.638;9.060;2022-08-21T06:44:54;0.40;;;0.40;;
10523;SDS011;5310;48.638;9.060;2022-08-21T06:49:47;0.30;;;0.30;;
10523;SDS011;5310;48.638;9.060;2022-08-21T07:01:56;0.30;;;0.30;;
10523;SDS011;5310;48.638;9.060;2022-08-21T07:04:22;0.40;;;0.40;;
10523;SDS011;5310;48.638;9.060;2022-08-21T07:06:48;0.50;;;0.50;;
10523;SDS011;5310;48.638;9.060;2022-08-21T07:09:14;0.30;;;0.30;;
10523;SDS011;5310;48.638;9.060;2022-08-21T07:11:40;0.30;;;0.30;;
10523;SDS011;5310;48.638;9.060;2022-08-21T07:14:06;0.40;;;0.40;;
10523;SDS011;5310;48.638;9.060;2022-08-21T07:16:32;0.40;;;0.40;;
10523;SDS011;5310;48.638;9.060;2022-08-21T07:18:58;0.40;;;0.40;;
10523;SDS011;5310;48.638;9.060;2022-08-21T07:28:43;0.30;;;0.30;;
10523;SDS011;5310;48.638;9.060;2022-08-21T07:31:09;0.40;;;0.40;;
10523;SDS011;5310;48.638;9.060;2022-08-21T07:33:38;0.40;;;0.40;;
10523;SDS011;5310;48.638;9.060;2022-08-21T07:36:05;0.40;;;0.40;;
10523;SDS011;5310;48.638;9.060;2022-08-21T07:38:31;0.30;;;0.30;;
10523;SDS011;5310;48.638;9.060;2022-08-21T07:40:57;0.40;;;0.40;;
10523;SDS011;5310;48.638;9.060;2022-08-21T07:43:24;0.40;;;0.40;;
10523;SDS011;5310;48.638;9.060;2022-08-21T07:45:50;0.40;;;0.40;;
10523;SDS011;5310;48.638;9.060;2022-08-21T07:48:16;0.40;;;0.40;;
10523;SDS011;5310;48.638;9.060;2022-08-21T07:50:42;0.40;;;0.40;;
10523;SDS011;5310;48.638;9.060;2022-08-21T07:53:09;0.40;;;0.40;;
10523;SDS011;5310;48.638;9.060;2022-08-21T07:55:35;0.30;;;0.30;;
10523;SDS011;5310;48.638;9.060;2022-08-21T07:58:00;0.30;;;0.30;;
10523;SDS011;5310;48.638;9.060;2022-08-21T08:00:27;0.30;;;0.30;;
10523;SDS011;5310;48.638;9.060;2022-08-21T08:02:53;0.30;;;0.30;;
10523;SDS011;5310;48.638;9.060;2022-08-21T08:05:21;0.30;;;0.30;;
